LEVDLEST

Guest
Details From LEVD - Valladolid - Villanubla
To LEST - Santiago
Flight Number -
Tags Generated
Created
Modified
Stats Distance 174 nm / 322 km
Max Altitude 0 ft / 0 m
Waypoints 2
Social Downloads 3
Likes 0
Share VATSIM

Download

Looking for another format? Having issues loading an existing format? Contact us
Advertisement - Login to hide

Notes

Generated

Route

LEVD LEST

ID Type Via Altitude Latitude Longitude Leg Dist Tot Dist Heading (true) Name
O LEVD APT - 0 ft / 0 m 41.71332˚ -4.86181˚ - 0 nm - Valladolid - Villanubla
O LEST APT - 0 ft / 0 m 42.91177˚ -8.42043˚ 173 nm 173 nm 296° / 293° -

Altitude Profile

Advertisement - Login to hide

Weather


0- 5 10 15 20 25 30 35+ Temperature / ° C

Clouds and Precipitation
Forecast for 2017-12-16 06:00 UTC. Updated an hour ago

Ground ~20,000 ft ~40,000 ft Winds

LEVD

Details ICAO LEVD (VLL)
Name Valladolid - Villanubla
Region Spain
Timezone Europe/Madrid (UTC+1.0)
Stats Elevation 2,775 ft / 846 m (AMSL)
Location 41.708270° -4.855278°
Runways 2
Magnetic Variation 1.131° W

METAR

Not found

TAF

TAF LEVD 152300Z 1600/1624 34006KT CAVOK TX07/1614Z TNM02/1608Z PROB30 TEMPO 1605/1608 2500 BR

Decode

Departure Runways

ID Width Length Bearing (true) Bearing (mag) Surface Threshold Offset Overrun Length
05 197 ft / 60 m 9,851 ft / 3,003 m 45.09° 46.22° Asphalt 0 ft / 0 m 676 ft / 206 m
15 197 ft / 60 m 2,975 ft / 907 m 144.18° 145.31° Dirt 0 ft / 0 m 213 ft / 65 m
23 197 ft / 60 m 9,851 ft / 3,003 m 225.10° 226.23° Asphalt 0 ft / 0 m 164 ft / 50 m
33 197 ft / 60 m 2,975 ft / 907 m 324.18° 325.31° Dirt 0 ft / 0 m 656 ft / 200 m

LEST

Details ICAO LEST (SCQ)
Name Santiago
Region Spain
Timezone Europe/Madrid (UTC+1.0)
Stats Elevation 1,169 ft / 356 m (AMSL)
Location 42.897797° -8.415691°
Runways 1
Magnetic Variation 2.371° W

METAR

LEST 160200Z VRB01KT 9999 R17/0700D BCFG FEW028 02/01 Q1022 NOSIG

Decode

TAF

TAF TAF LEST 152300Z 1600/1624 VRB04KT 9999 SCT025 TX09/1614Z TN01/1607Z PROB40 TEMPO 1600/1608 3000 BR PROB30 TEMPO 1600/1608 0800 BCFG BKN002

Decode

Destination Runways

ID Width Length Bearing (true) Bearing (mag) Surface Threshold Offset Overrun Length
17 148 ft / 45 m 10,509 ft / 3,203 m 166.04° 168.41° Asphalt 394 ft / 120 m 0 ft / 0 m
35 148 ft / 45 m 10,509 ft / 3,203 m 346.05° 348.42° Asphalt 0 ft / 0 m 197 ft / 60 m

Approach Navaids

Runway Type Ident Frequency Range Bearing (true) Bearing (mag) Slope Elevation
17 Localiser IGO 110.30 MHz 18 nm / 33 km 166.06° 168.43° - 1,171 ft / 357 m (AMSL)
17 Glidescope IGO 110.30 MHz 10 nm / 19 km 166.04° 168.42° 3.00° 1,171 ft / 357 m (AMSL)
17 DME IGO 110.30 MHz 18 nm / 33 km - - - 1,171 ft / 357 m (AMSL)
35 Localiser ISO 111.50 MHz 18 nm / 33 km 346.20° 348.57° - 1,197 ft / 365 m (AMSL)
35 Glidescope ISO 111.50 MHz 10 nm / 19 km 346.05° 348.42° 3.00° 1,196 ft / 365 m (AMSL)
35 DME ISO 111.50 MHz 18 nm / 33 km - - - 1,196 ft / 365 m (AMSL)